createdAt,value
2022-10-18T00:00:48.466Z,98639.72
2022-10-18T00:03:19.239Z,98639.72
2022-10-18T00:05:50.688Z,98650.25
2022-10-18T00:08:22.721Z,98642.28
2022-10-18T00:10:53.285Z,98640.59
2022-10-18T00:13:24.293Z,98634.16
2022-10-18T00:15:59.372Z,98636.78
2022-10-18T00:18:31.144Z,98633.25
2022-10-18T00:21:03.916Z,98623.28
2022-10-18T00:23:35.185Z,98628.22
2022-10-18T00:26:08.820Z,98621.28
2022-10-18T00:28:39.847Z,98622.06
2022-10-18T00:31:18.982Z,98624.50
2022-10-18T00:33:52.681Z,98614.72
2022-10-18T00:36:23.519Z,98619.97
2022-10-18T00:38:54.894Z,98614.69
2022-10-18T00:41:27.808Z,98611.16
2022-10-18T00:44:00.799Z,98606.91
2022-10-18T00:46:36.546Z,98607.16
2022-10-18T00:49:10.760Z,98581.75
2022-10-18T00:51:46.518Z,98605.22
2022-10-18T00:54:19.765Z,98593.41
2022-10-18T00:56:50.625Z,98600.84
2022-10-18T00:59:22.285Z,98595.34
2022-10-18T01:01:55.678Z,98593.25
2022-10-18T01:04:26.977Z,98598.22
2022-10-18T01:07:04.079Z,98596.09
2022-10-18T01:09:42.959Z,98592.50
2022-10-18T01:12:25.124Z,98588.94
2022-10-18T01:15:05.752Z,98575.09
2022-10-18T01:17:47.055Z,98588.84
2022-10-18T01:20:52.613Z,98584.41
2022-10-18T01:23:34.709Z,98582.63
2022-10-18T01:26:20.256Z,98574.59
2022-10-18T01:29:04.579Z,98577.25
2022-10-18T01:31:43.367Z,98577.25
2022-10-18T01:34:18.133Z,98571.97
2022-10-18T01:36:52.868Z,98577.25
2022-10-18T01:39:27.646Z,98568.47
2022-10-18T01:42:01.592Z,98573.75
2022-10-18T01:44:34.929Z,98572.78
2022-10-18T01:47:12.244Z,98567.59
2022-10-18T01:49:43.051Z,98567.59
2022-10-18T01:52:16.129Z,98564.25
2022-10-18T01:54:51.375Z,98568.56
2022-10-18T01:57:32.099Z,98562.47
2022-10-18T02:00:08.874Z,98556.31
2022-10-18T02:02:52.292Z,98562.56
2022-10-18T02:05:32.513Z,98564.34
2022-10-18T02:08:22.790Z,98565.50
2022-10-18T02:10:57.768Z,98562.84
2022-10-18T02:13:33.774Z,98562.22
2022-10-18T02:16:30.033Z,98557.16
2022-10-18T02:19:08.681Z,98556.50
2022-10-18T02:21:41.584Z,98552.28
2022-10-18T02:24:14.419Z,98557.75
2022-10-18T02:26:45.565Z,98551.84
2022-10-18T02:29:16.659Z,98553.72
2022-10-18T02:31:49.297Z,98554.78
2022-10-18T02:34:26.082Z,98546.44
2022-10-18T02:36:58.982Z,98556.97
2022-10-18T02:39:33.614Z,98567.63
2022-10-18T02:42:06.976Z,98553.72
2022-10-18T02:44:38.425Z,98562.59
2022-10-18T02:47:10.269Z,98559.19
2022-10-18T02:49:43.614Z,98553.19
2022-10-18T02:52:14.255Z,98556.78
2022-10-18T02:54:44.876Z,98558.53
2022-10-18T02:57:15.400Z,98560.41
2022-10-18T02:59:45.992Z,98554.50
2022-10-18T03:02:16.785Z,98559.59
2022-10-18T03:04:50.007Z,98554.41
2022-10-18T03:07:21.090Z,98566.75
2022-10-18T03:09:51.812Z,98558.09
2022-10-18T03:12:22.417Z,98565.06
2022-10-18T03:14:52.983Z,98560.84
2022-10-18T03:17:23.523Z,98553.03
2022-10-18T03:19:56.730Z,98561.03
2022-10-18T03:24:59.696Z,98556.06
2022-10-18T03:27:30.537Z,98553.44
2022-10-18T03:30:01.320Z,98555.31
2022-10-18T03:32:33.476Z,98553.63
2022-10-18T03:35:07.206Z,98553.63
2022-10-18T03:37:38.074Z,98554.56
2022-10-18T03:40:10.441Z,98556.34
2022-10-18T03:42:42.294Z,98556.34
2022-10-18T03:45:13.425Z,98554.56
2022-10-18T03:47:44.003Z,98554.56
2022-10-18T03:50:17.282Z,98553.81
2022-10-18T03:52:48.027Z,98561.63
2022-10-18T03:55:18.772Z,98558.25
2022-10-18T03:57:49.350Z,98562.69
2022-10-18T04:00:20.134Z,98556.66
2022-10-18T04:02:53.451Z,98553.31
2022-10-18T04:05:31.491Z,98556.03
2022-10-18T04:08:02.153Z,98567.47
2022-10-18T04:10:32.754Z,98560.22
2022-10-18T04:13:03.364Z,98556.28
2022-10-18T04:15:33.917Z,98554.91
2022-10-18T04:18:05.361Z,98562.63
2022-10-18T04:20:38.578Z,98554.47
2022-10-18T04:23:09.106Z,98558.53
2022-10-18T04:25:39.703Z,98550.06
2022-10-18T04:28:10.370Z,98545.59
2022-10-18T04:30:40.924Z,98544.38
2022-10-18T04:33:11.581Z,98538.56
2022-10-18T04:35:44.812Z,98538.41
2022-10-18T04:38:15.939Z,98532.28
2022-10-18T04:40:46.903Z,98532.97
2022-10-18T04:43:17.562Z,98532.78
2022-10-18T04:45:48.459Z,98539.59
2022-10-18T04:48:19.016Z,98535.22
2022-10-18T04:50:54.304Z,98542.09
2022-10-18T04:53:24.884Z,98543.88
2022-10-18T04:55:55.384Z,98541.38
2022-10-18T04:58:25.976Z,98537.16
2022-10-18T05:00:56.630Z,98539.22
2022-10-18T05:03:27.114Z,98528.97
2022-10-18T05:06:03.285Z,98530.25
2022-10-18T05:08:35.120Z,98529.69
2022-10-18T05:11:06.624Z,98534.50
2022-10-18T05:13:38.497Z,98540.97
2022-10-18T05:16:09.467Z,98537.84
2022-10-18T05:18:40.101Z,98532.94
2022-10-18T05:21:13.457Z,98539.41
2022-10-18T05:23:44.283Z,98536.47
2022-10-18T05:26:14.821Z,98551.31
2022-10-18T05:28:45.393Z,98544.38
2022-10-18T05:31:16.032Z,98533.75
2022-10-18T05:33:46.819Z,98531.81
2022-10-18T05:36:20.020Z,98529.28
2022-10-18T05:38:50.685Z,98532.91
2022-10-18T05:41:21.324Z,98527.19
2022-10-18T05:43:52.061Z,98536.38
2022-10-18T05:46:22.817Z,98537.47
2022-10-18T05:48:53.982Z,98522.56
2022-10-18T05:51:27.630Z,98534.50
2022-10-18T05:53:59.038Z,98542.25
2022-10-18T05:56:29.803Z,98539.69
2022-10-18T05:59:00.363Z,98546.13
2022-10-18T06:01:30.922Z,98547.53
2022-10-18T06:04:01.489Z,98548.88
2022-10-18T06:06:35.435Z,98545.53
2022-10-18T06:09:06.572Z,98541.28
2022-10-18T06:11:38.051Z,98541.31
2022-10-18T06:14:08.597Z,98540.03
2022-10-18T06:16:39.344Z,98541.41
2022-10-18T06:19:09.950Z,98535.56
2022-10-18T06:21:43.094Z,98535.81
2022-10-18T06:24:13.624Z,98537.75
2022-10-18T06:26:44.137Z,98525.56
2022-10-18T06:29:14.866Z,98529.00
2022-10-18T06:31:45.614Z,98520.38
2022-10-18T06:34:16.199Z,98521.56
2022-10-18T06:36:49.326Z,98520.53
2022-10-18T06:39:19.917Z,98523.88
2022-10-18T06:41:50.448Z,98513.63
2022-10-18T06:44:23.456Z,98519.94
2022-10-18T06:46:53.988Z,98517.78
2022-10-18T06:49:24.572Z,98509.38
2022-10-18T06:51:57.726Z,98509.56
2022-10-18T06:54:28.257Z,98507.41
2022-10-18T06:56:59.834Z,98504.81
2022-10-18T06:59:31.386Z,98501.94
2022-10-18T07:02:02.280Z,98494.72
2022-10-18T07:04:33.205Z,98493.59
2022-10-18T07:07:06.318Z,98488.69
2022-10-18T07:09:36.861Z,98495.97
2022-10-18T07:12:07.947Z,98490.88
2022-10-18T07:14:38.485Z,98478.06
2022-10-18T07:17:09.125Z,98479.88
2022-10-18T07:19:39.667Z,98477.88
2022-10-18T07:22:12.850Z,98475.19
2022-10-18T07:24:43.366Z,98474.13
2022-10-18T07:27:13.912Z,98480.22
2022-10-18T07:29:44.737Z,98474.88
2022-10-18T07:32:15.317Z,98478.84
2022-10-18T07:34:45.890Z,98469.94
2022-10-18T07:37:19.079Z,98466.34
2022-10-18T07:39:49.673Z,98455.50
2022-10-18T07:42:20.263Z,98456.31
2022-10-18T07:44:50.851Z,98455.59
2022-10-18T07:47:21.393Z,98457.44
2022-10-18T07:49:51.931Z,98456.06
2022-10-18T07:52:25.063Z,98447.25
2022-10-18T07:54:55.786Z,98439.06
2022-10-18T07:57:26.392Z,98437.94
2022-10-18T07:59:57.588Z,98432.44
2022-10-18T08:02:28.228Z,98429.41
2022-10-18T08:04:58.776Z,98433.44
2022-10-18T08:07:33.351Z,98430.41
2022-10-18T08:10:04.199Z,98425.16
2022-10-18T08:12:34.896Z,98426.13
2022-10-18T08:15:05.478Z,98419.63
2022-10-18T08:17:35.988Z,98415.66
2022-10-18T08:20:19.178Z,98417.06
2022-10-18T08:23:00.734Z,98417.66
2022-10-18T08:25:31.655Z,98408.47
2022-10-18T08:28:02.254Z,98405.59
2022-10-18T08:30:32.783Z,98393.72
2022-10-18T08:33:03.294Z,98401.69
2022-10-18T08:35:34.040Z,98381.72
2022-10-18T08:38:16.456Z,98386.16
2022-10-18T08:40:49.056Z,98395.91
2022-10-18T08:43:29.748Z,98385.94
2022-10-18T08:46:00.691Z,98378.53
2022-10-18T08:48:38.702Z,98383.06
2022-10-18T08:51:20.028Z,98382.03
2022-10-18T08:53:59.927Z,98375.81
2022-10-18T08:56:30.710Z,98382.03
2022-10-18T08:59:01.254Z,98375.63
2022-10-18T09:01:42.700Z,98372.28
2022-10-18T09:04:28.986Z,98363.56
2022-10-18T09:07:15.603Z,98356.72
2022-10-18T09:09:56.018Z,98358.94
2022-10-18T09:12:58.880Z,98355.25
2022-10-18T09:15:37.353Z,98354.03
2022-10-18T09:18:19.171Z,98346.38
2022-10-18T09:20:57.064Z,98342.25
2022-10-18T09:23:40.814Z,98344.78
2022-10-18T09:26:19.592Z,98346.88
2022-10-18T09:29:13.850Z,98341.72
2022-10-18T09:31:53.527Z,98346.91
2022-10-18T09:34:31.053Z,98335.31
2022-10-18T09:37:03.135Z,98328.91
2022-10-18T09:39:36.803Z,98316.59
2022-10-18T09:42:18.172Z,98329.53
2022-10-18T09:44:52.084Z,98322.47
2022-10-18T09:47:27.877Z,98323.50
2022-10-18T09:50:02.259Z,98318.13
2022-10-18T09:52:40.196Z,98312.53
2022-10-18T09:55:18.673Z,98303.41
2022-10-18T09:57:56.502Z,98296.97
2022-10-18T10:00:32.938Z,98298.44
2022-10-18T10:03:04.649Z,98298.44
2022-10-18T10:05:35.732Z,98291.00
2022-10-18T10:08:06.426Z,98285.22
2022-10-18T10:10:38.691Z,98290.41
2022-10-18T10:13:23.243Z,98271.53
2022-10-18T10:15:57.875Z,98269.31
2022-10-18T10:18:31.181Z,98268.88
2022-10-18T10:21:03.688Z,98261.06
2022-10-18T10:23:39.333Z,98255.50
2022-10-18T10:26:25.182Z,98254.31
2022-10-18T10:28:58.715Z,98253.09
2022-10-18T10:31:31.437Z,98250.25
2022-10-18T10:34:04.401Z,98248.63
2022-10-18T10:36:36.507Z,98232.69
2022-10-18T10:39:10.091Z,98228.97
2022-10-18T10:41:43.256Z,98224.66
2022-10-18T10:44:22.128Z,98218.91
2022-10-18T10:46:55.073Z,98220.16
2022-10-18T10:49:39.644Z,98208.09
2022-10-18T10:52:28.825Z,98212.03
2022-10-18T10:55:11.265Z,98202.44
2022-10-18T10:57:49.212Z,98198.25
2022-10-18T11:00:47.318Z,98197.56
2022-10-18T11:03:29.160Z,98196.06
2022-10-18T11:06:02.304Z,98192.66
2022-10-18T11:08:39.064Z,98189.25
2022-10-18T11:11:23.015Z,98191.88
2022-10-18T11:14:13.810Z,98191.41
2022-10-18T11:16:58.291Z,98186.31
2022-10-18T11:19:41.376Z,98186.03
2022-10-18T11:22:18.350Z,98176.97
2022-10-18T11:24:49.099Z,98172.25
2022-10-18T11:27:25.973Z,98172.97
2022-10-18T11:30:17.367Z,98165.31
2022-10-18T11:32:58.883Z,98161.78
2022-10-18T11:35:42.948Z,98151.19
2022-10-18T11:38:28.612Z,98147.59
2022-10-18T11:41:13.611Z,98144.56
2022-10-18T11:44:03.093Z,98144.13
2022-10-18T11:47:00.475Z,98129.97
2022-10-18T11:49:54.606Z,98133.13
2022-10-18T11:52:34.233Z,98130.88
2022-10-18T11:55:32.004Z,98128.78
2022-10-18T11:58:11.860Z,98125.13
2022-10-18T12:00:49.962Z,98119.25
2022-10-18T12:03:41.793Z,98108.50
2022-10-18T12:06:18.744Z,98110.91
2022-10-18T12:08:52.474Z,98111.16
2022-10-18T12:11:27.662Z,98099.34
2022-10-18T12:14:01.244Z,98101.03
2022-10-18T12:16:50.896Z,98096.97
2022-10-18T12:19:26.898Z,98101.44
2022-10-18T12:22:13.781Z,98088.22
2022-10-18T12:24:45.198Z,98089.34
2022-10-18T12:27:19.024Z,98093.22
2022-10-18T12:29:56.533Z,98081.81
2022-10-18T12:32:32.903Z,98085.19
2022-10-18T12:35:08.174Z,98080.78
2022-10-18T12:37:54.075Z,98071.59
2022-10-18T12:40:27.587Z,98074.25
2022-10-18T12:42:59.220Z,98071.03
2022-10-18T12:45:35.565Z,98064.00
2022-10-18T12:48:09.888Z,98052.19
2022-10-18T12:50:42.343Z,98058.06
2022-10-18T12:53:27.627Z,98053.09
2022-10-18T12:56:19.884Z,98049.00
2022-10-18T12:58:52.487Z,98049.66
2022-10-18T13:01:23.133Z,98050.13
2022-10-18T13:03:56.860Z,98044.72
2022-10-18T13:06:27.921Z,98037.06
2022-10-18T13:09:22.599Z,98040.63
2022-10-18T13:11:57.498Z,98043.34
2022-10-18T13:15:13.351Z,98043.53
2022-10-18T13:17:52.724Z,98039.78
2022-10-18T13:20:30.799Z,98035.22
2022-10-18T13:23:21.819Z,98029.44
2022-10-18T13:26:04.532Z,98025.69
2022-10-18T13:28:43.274Z,98031.50
2022-10-18T13:31:22.431Z,98022.38
2022-10-18T13:33:53.229Z,98027.75
2022-10-18T13:36:29.555Z,98026.31
2022-10-18T13:39:06.256Z,98027.56
2022-10-18T13:42:12.315Z,98008.47
2022-10-18T13:44:43.765Z,98020.72
2022-10-18T13:47:17.258Z,98018.66
2022-10-18T13:50:21.894Z,98016.56
2022-10-18T13:53:14.905Z,98019.91
2022-10-18T13:56:08.319Z,98017.63
2022-10-18T13:59:06.114Z,98017.22
2022-10-18T14:01:57.811Z,98011.56
2022-10-18T14:05:23.213Z,98010.31
2022-10-18T14:07:56.184Z,97999.53
2022-10-18T14:10:50.298Z,98002.84
2022-10-18T14:13:27.725Z,98005.75
2022-10-18T14:16:09.170Z,98004.69
2022-10-18T14:18:44.360Z,97997.84
2022-10-18T14:21:21.775Z,97992.25
2022-10-18T14:23:54.475Z,97991.16
2022-10-18T14:26:28.816Z,97996.16
2022-10-18T14:29:08.084Z,97987.00
2022-10-18T14:31:41.400Z,97980.34
2022-10-18T14:34:18.443Z,97977.44
2022-10-18T14:36:51.747Z,97982.63
2022-10-18T14:39:25.424Z,97965.41
2022-10-18T14:41:57.819Z,97972.03
2022-10-18T14:44:30.043Z,97966.63
2022-10-18T14:47:07.385Z,97970.94
2022-10-18T14:49:45.856Z,97963.69
2022-10-18T14:52:19.882Z,97959.50
2022-10-18T14:54:52.119Z,97956.81
2022-10-18T14:57:26.625Z,97954.09
2022-10-18T15:00:02.302Z,97956.56
2022-10-18T15:02:40.497Z,97950.97
2022-10-18T15:05:17.773Z,97952.59
2022-10-18T15:07:48.934Z,97950.66
2022-10-18T15:10:21.821Z,97951.09
2022-10-18T15:13:09.167Z,97954.56
2022-10-18T15:15:41.271Z,97946.84
2022-10-18T15:18:23.452Z,97945.56
2022-10-18T15:21:13.273Z,97943.03
2022-10-18T15:23:43.973Z,97935.13
2022-10-18T15:26:18.476Z,97943.34
2022-10-18T15:28:53.493Z,97944.34
2022-10-18T15:31:28.584Z,97933.72
2022-10-18T15:34:13.994Z,97942.97
2022-10-18T15:36:44.762Z,97945.16
2022-10-18T15:39:20.176Z,97948.38
2022-10-18T15:41:52.923Z,97947.03
2022-10-18T15:44:27.219Z,97952.94
2022-10-18T15:46:59.952Z,97949.94
2022-10-18T15:50:03.187Z,97950.56
2022-10-18T15:52:53.819Z,97958.50
2022-10-18T15:55:49.469Z,97952.59
2022-10-18T15:58:25.776Z,97957.63
2022-10-18T16:00:59.525Z,97966.16
2022-10-18T16:03:30.988Z,97962.28
2022-10-18T16:06:08.115Z,97963.59
2022-10-18T16:08:43.811Z,97970.25
2022-10-18T16:11:18.178Z,97969.69
2022-10-18T16:13:49.083Z,97980.50
2022-10-18T16:16:22.715Z,97984.94
2022-10-18T16:18:54.085Z,97976.31
2022-10-18T16:21:27.013Z,97982.19
2022-10-18T16:24:00.742Z,97975.06
2022-10-18T16:26:32.274Z,97981.16
2022-10-18T16:29:03.899Z,97980.19
2022-10-18T16:31:36.548Z,97978.44
2022-10-18T16:34:07.120Z,97977.47
2022-10-18T16:36:37.702Z,97973.00
2022-10-18T16:39:17.763Z,97979.44
2022-10-18T16:41:49.155Z,97984.84
2022-10-18T16:44:19.821Z,97981.22
2022-10-18T16:46:53.833Z,97975.44
2022-10-18T16:49:27.829Z,97980.66
2022-10-18T16:51:59.702Z,97980.69
2022-10-18T16:54:35.935Z,97977.25
2022-10-18T16:57:06.675Z,97976.25
2022-10-18T16:59:37.320Z,97980.66
2022-10-18T17:02:09.464Z,97961.81
2022-10-18T17:04:40.143Z,97970.66
2022-10-18T17:07:13.041Z,97978.53
2022-10-18T17:09:46.380Z,97984.91
2022-10-18T17:12:17.058Z,97969.91
2022-10-18T17:14:47.684Z,97966.25
2022-10-18T17:17:18.362Z,97965.25
2022-10-18T17:19:48.970Z,97955.59
2022-10-18T17:22:19.552Z,97959.94
2022-10-18T17:24:52.835Z,97955.44
2022-10-18T17:27:23.401Z,97960.63
2022-10-18T17:29:54.056Z,97960.63
2022-10-18T17:32:24.621Z,97957.66
2022-10-18T17:34:55.224Z,97953.81
2022-10-18T17:37:26.044Z,97956.31
2022-10-18T17:39:59.474Z,97955.97
2022-10-18T17:42:30.044Z,97945.97
2022-10-18T17:45:00.740Z,97945.66
2022-10-18T17:47:31.759Z,97942.63
2022-10-18T17:50:02.573Z,97942.28
2022-10-18T17:52:33.467Z,97936.78
2022-10-18T17:55:07.206Z,97934.94
2022-10-18T17:57:37.839Z,97936.63
2022-10-18T18:00:12.128Z,97934.59
2022-10-18T18:02:43.477Z,97934.41
2022-10-18T18:05:14.595Z,97925.53
2022-10-18T18:07:45.163Z,97928.84
2022-10-18T18:10:18.673Z,97919.84
2022-10-18T18:12:49.378Z,97914.31
2022-10-18T18:15:20.207Z,97908.81
2022-10-18T18:17:57.260Z,97912.09
2022-10-18T18:20:28.501Z,97898.53
2022-10-18T18:22:59.156Z,97898.72
2022-10-18T18:25:32.601Z,97903.66
2022-10-18T18:28:05.192Z,97902.41
2022-10-18T18:33:57.067Z,97902.72
2022-10-18T18:36:29.261Z,97899.81
2022-10-18T18:38:59.917Z,97904.28
2022-10-18T18:41:33.204Z,97900.66
2022-10-18T18:44:05.909Z,97902.47
2022-10-18T18:46:38.958Z,97894.06
2022-10-18T18:49:10.551Z,97899.69
2022-10-18T18:51:41.673Z,97897.25
2022-10-18T18:54:14.944Z,97899.06
2022-10-18T18:56:48.368Z,97896.66
2022-10-18T18:59:19.103Z,97889.16
2022-10-18T19:01:49.827Z,97896.75
2022-10-18T19:04:20.538Z,97881.91
2022-10-18T19:06:51.132Z,97893.44
2022-10-18T19:09:22.845Z,97887.91
2022-10-18T19:11:57.349Z,97889.25
2022-10-18T19:14:29.235Z,97890.91
2022-10-18T19:17:01.837Z,97886.97
2022-10-18T19:19:34.361Z,97886.34
2022-10-18T19:22:09.809Z,97883.59
2022-10-18T19:24:40.657Z,97882.97
2022-10-18T19:27:16.635Z,97874.13
2022-10-18T19:29:49.121Z,97875.66
2022-10-18T19:32:22.990Z,97870.19
2022-10-18T19:34:57.212Z,97867.78
2022-10-18T19:37:29.716Z,97867.66
2022-10-18T19:40:01.820Z,97862.03
2022-10-18T19:42:38.470Z,97861.91
2022-10-18T19:45:11.255Z,97857.00
2022-10-18T19:47:45.018Z,97847.28
2022-10-18T19:50:15.869Z,97840.78
2022-10-18T19:52:46.984Z,97846.16
2022-10-18T19:55:19.812Z,97851.69
2022-10-18T19:57:53.317Z,97850.28
2022-10-18T20:00:24.165Z,97853.03
2022-10-18T20:02:54.701Z,97847.88
2022-10-18T20:05:25.415Z,97844.41
2022-10-18T20:07:55.956Z,97841.50
2022-10-18T20:10:26.529Z,97830.84
2022-10-18T20:12:59.761Z,97833.25
2022-10-18T20:15:30.442Z,97828.91
2022-10-18T20:18:00.972Z,97819.56
2022-10-18T20:20:31.648Z,97824.03
2022-10-18T20:23:02.179Z,97821.38
2022-10-18T20:25:32.928Z,97824.00
2022-10-18T20:28:06.081Z,97816.78
2022-10-18T20:30:36.730Z,97819.22
2022-10-18T20:33:07.321Z,97817.44
2022-10-18T20:35:37.957Z,97814.84
2022-10-18T20:38:08.576Z,97813.19
2022-10-18T20:40:39.173Z,97814.06
2022-10-18T20:43:12.564Z,97813.84
2022-10-18T20:45:43.335Z,97819.34
2022-10-18T20:48:13.843Z,97824.13
2022-10-18T20:50:45.171Z,97809.16
2022-10-18T20:53:15.748Z,97806.53
2022-10-18T20:55:46.571Z,97805.66
2022-10-18T20:58:20.105Z,97804.91
2022-10-18T21:00:50.656Z,97795.19
2022-10-18T21:03:21.198Z,97801.56
2022-10-18T21:05:51.900Z,97799.03
2022-10-18T21:08:22.481Z,97785.50
2022-10-18T21:10:53.029Z,97788.34
2022-10-18T21:13:26.161Z,97775.94
2022-10-18T21:16:00.357Z,97780.47
2022-10-18T21:18:31.486Z,97781.44
2022-10-18T21:21:11.146Z,97765.66
2022-10-18T21:23:42.076Z,97770.50
2022-10-18T21:26:17.645Z,97761.22
2022-10-18T21:28:50.551Z,97764.31
2022-10-18T21:31:23.479Z,97764.78
2022-10-18T21:33:56.558Z,97751.38
2022-10-18T21:36:27.502Z,97745.53
2022-10-18T21:38:58.046Z,97749.53
2022-10-18T21:41:29.166Z,97742.94
2022-10-18T21:44:05.575Z,97738.81
2022-10-18T21:46:39.477Z,97735.03
2022-10-18T21:49:10.856Z,97736.81
2022-10-18T21:51:41.743Z,97722.59
2022-10-18T21:54:16.260Z,97722.25
2022-10-18T21:56:47.949Z,97719.25
2022-10-18T21:59:21.093Z,97716.28
2022-10-18T22:01:51.849Z,97717.06
2022-10-18T22:04:24.866Z,97719.72
2022-10-18T22:06:55.462Z,97712.66
2022-10-18T22:09:26.083Z,97712.66
2022-10-18T22:11:57.106Z,97703.31
2022-10-18T22:14:30.420Z,97700.19
2022-10-18T22:17:00.970Z,97700.63
2022-10-18T22:19:31.781Z,97694.34
2022-10-18T22:22:02.573Z,97688.19
2022-10-18T22:24:33.181Z,97685.63
2022-10-18T22:27:04.026Z,97686.56
2022-10-18T22:29:37.309Z,97683.38
2022-10-18T22:32:08.332Z,97674.13
2022-10-18T22:34:38.978Z,97673.59
2022-10-18T22:37:09.482Z,97673.09
2022-10-18T22:39:40.096Z,97666.72
2022-10-18T22:42:10.622Z,97670.06
2022-10-18T22:44:43.753Z,97658.50
2022-10-18T22:47:14.466Z,97654.22
2022-10-18T22:49:45.105Z,97649.91
2022-10-18T22:52:15.979Z,97656.97
2022-10-18T22:54:46.765Z,97653.75
2022-10-18T22:57:17.500Z,97654.00
2022-10-18T22:59:50.799Z,97645.41
2022-10-18T23:02:21.388Z,97639.41
2022-10-18T23:04:52.013Z,97642.16
2022-10-18T23:07:22.547Z,97637.16
2022-10-18T23:09:53.199Z,97638.94
2022-10-18T23:12:23.931Z,97638.25
2022-10-18T23:14:57.097Z,97633.09
2022-10-18T23:17:27.692Z,97634.88
2022-10-18T23:19:58.447Z,97627.09
2022-10-18T23:22:29.060Z,97626.28
2022-10-18T23:24:59.629Z,97625.31
2022-10-18T23:27:31.752Z,97621.00
2022-10-18T23:30:04.974Z,97622.66
2022-10-18T23:32:35.882Z,97615.72
2022-10-18T23:35:06.895Z,97612.09
2022-10-18T23:37:37.669Z,97607.66
2022-10-18T23:40:09.591Z,97604.31
2022-10-18T23:42:40.165Z,97602.75
2022-10-18T23:45:14.177Z,97598.22
2022-10-18T23:47:44.749Z,97594.84
2022-10-18T23:50:15.361Z,97599.44
2022-10-18T23:52:46.003Z,97606.38
2022-10-18T23:55:16.663Z,97595.09
2022-10-18T23:57:47.460Z,97604.84
